Time;durP1;ratioP1;P1;durP2;ratioP2;P2;SDS_P1;SDS_P2;PMS_P1;PMS_P2;Temp;Humidity;BMP_temperature;BMP_pressure;BME280_temperature;BME280_humidity;BME280_pressure;Samples;Min_cycle;Max_cycle;Signal;HPM_P1;HPM_P2
2022/03/04 00:02:06;;;;;;;1999.90;999.90;;;5.40;99.90;;;;;;5075430;28;20171;-78
2022/03/04 00:04:37;;;;;;;1999.90;999.90;;;5.40;99.90;;;;;;5075221;28;20439;-78
2022/03/04 00:07:06;;;;;;;1999.90;999.90;;;5.30;99.90;;;;;;5075128;28;20417;-78
2022/03/04 00:09:32;;;;;;;1999.90;999.90;;;5.30;99.90;;;;;;5075411;28;20405;-78
2022/03/04 00:11:58;;;;;;;1999.90;999.90;;;5.30;99.90;;;;;;5073883;28;20802;-78
2022/03/04 00:14:27;;;;;;;1999.90;999.90;;;5.30;99.90;;;;;;5075071;28;20398;-78
2022/03/04 00:16:53;;;;;;;1999.90;999.90;;;5.20;99.90;;;;;;5074802;28;20221;-78
2022/03/04 00:19:19;;;;;;;1999.90;999.90;;;5.10;99.90;;;;;;5074554;28;20406;-79
2022/03/04 00:21:50;;;;;;;1999.90;999.90;;;5.10;99.90;;;;;;5074978;28;20463;-79
2022/03/04 00:24:17;;;;;;;1999.90;999.90;;;5.00;99.90;;;;;;5074692;28;20401;-78
2022/03/04 00:26:43;;;;;;;1999.90;999.90;;;4.90;99.90;;;;;;5074862;28;20421;-77
2022/03/04 00:29:10;;;;;;;1999.90;999.90;;;4.90;99.90;;;;;;5074832;28;20427;-78
2022/03/04 00:31:36;;;;;;;1999.90;999.90;;;4.90;99.90;;;;;;5074558;28;20402;-77
2022/03/04 00:34:06;;;;;;;1999.90;999.90;;;4.70;99.90;;;;;;5074163;28;20543;-78
2022/03/04 00:36:32;;;;;;;1999.90;999.90;;;4.70;99.90;;;;;;5074708;28;20417;-77
2022/03/04 00:38:58;;;;;;;1999.90;999.90;;;4.60;99.90;;;;;;5074226;28;20941;-77
2022/03/04 00:41:24;;;;;;;1999.90;999.90;;;4.60;99.90;;;;;;5075171;28;20397;-78
2022/03/04 00:43:51;;;;;;;1999.90;999.90;;;4.50;99.90;;;;;;5075407;28;20201;-77
2022/03/04 00:46:17;;;;;;;1999.90;999.90;;;4.50;99.90;;;;;;5074116;28;20441;-77
2022/03/04 00:48:44;;;;;;;1999.90;999.90;;;4.50;99.90;;;;;;5074537;28;20417;-77
2022/03/04 00:51:10;;;;;;;1999.90;999.90;;;4.50;99.90;;;;;;5056506;28;20451;-77
2022/03/04 00:53:37;;;;;;;1999.90;999.90;;;4.30;99.90;;;;;;5074120;28;20449;-78
2022/03/04 00:56:03;;;;;;;1999.90;999.90;;;4.30;99.90;;;;;;5073809;28;20437;-77
2022/03/04 00:58:29;;;;;;;1999.90;999.90;;;4.20;99.90;;;;;;5074359;28;20397;-78
2022/03/04 01:00:55;;;;;;;1999.90;999.90;;;4.20;99.90;;;;;;5074072;28;20773;-78
2022/03/04 01:03:20;;;;;;;1999.90;999.90;;;4.20;99.90;;;;;;5074058;28;20405;-77
2022/03/04 01:05:46;;;;;;;1999.90;999.90;;;4.20;99.90;;;;;;5073328;28;20628;-77
2022/03/04 01:08:12;;;;;;;1999.90;999.90;;;4.20;99.90;;;;;;5073984;28;20203;-78
2022/03/04 01:10:38;;;;;;;1999.90;999.90;;;4.20;99.90;;;;;;5073824;28;20202;-77
2022/03/04 01:13:04;;;;;;;1999.90;999.90;;;4.20;99.90;;;;;;5073801;28;20186;-77
2022/03/04 01:15:30;;;;;;;1999.90;999.90;;;4.20;99.90;;;;;;5073836;28;20421;-78
2022/03/04 01:17:55;;;;;;;1999.90;999.90;;;4.30;99.90;;;;;;5073872;28;21066;-78
2022/03/04 01:20:22;;;;;;;1999.90;999.90;;;4.20;99.90;;;;;;5074039;28;20174;-77
2022/03/04 01:22:48;;;;;;;1999.90;999.90;;;4.20;99.90;;;;;;5073967;28;20549;-77
2022/03/04 01:25:13;;;;;;;1999.90;999.90;;;4.20;99.90;;;;;;5073512;28;20417;-78
2022/03/04 01:27:39;;;;;;;1999.90;999.90;;;4.20;99.90;;;;;;5073938;28;20190;-77
2022/03/04 01:30:06;;;;;;;1999.90;999.90;;;4.20;99.90;;;;;;5073690;28;20173;-78
2022/03/04 01:32:32;;;;;;;1999.90;999.90;;;4.20;99.90;;;;;;5073335;28;20264;-78
2022/03/04 01:34:58;;;;;;;1999.90;999.90;;;4.20;99.90;;;;;;5073393;28;20236;-78
2022/03/04 01:37:24;;;;;;;1999.90;999.90;;;4.20;99.90;;;;;;5072261;28;20449;-77
2022/03/04 01:39:50;;;;;;;1999.90;999.90;;;4.20;99.90;;;;;;5073497;28;20159;-78
2022/03/04 01:42:15;;;;;;;1999.90;999.90;;;4.20;99.90;;;;;;5073723;28;20171;-78
2022/03/04 01:44:41;;;;;;;1999.90;999.90;;;4.10;99.90;;;;;;5073222;28;20698;-77
2022/03/04 01:47:07;;;;;;;1999.90;999.90;;;4.10;99.90;;;;;;5073286;28;20656;-78
2022/03/04 01:49:33;;;;;;;1999.90;999.90;;;4.00;99.90;;;;;;5073617;28;20167;-78
2022/03/04 01:51:59;;;;;;;1999.90;999.90;;;3.90;99.90;;;;;;5073055;28;20175;-77
2022/03/04 01:54:25;;;;;;;1999.90;999.90;;;4.00;99.90;;;;;;5073072;28;20398;-78
2022/03/04 01:56:51;;;;;;;1999.90;999.90;;;3.90;99.90;;;;;;5073337;28;20925;-77
2022/03/04 01:59:17;;;;;;;1999.90;999.90;;;3.90;99.90;;;;;;5073206;28;20444;-78
2022/03/04 02:01:43;;;;;;;1999.90;999.90;;;3.80;99.90;;;;;;5073161;28;20581;-77
2022/03/04 02:04:09;;;;;;;1999.90;999.90;;;3.80;99.90;;;;;;5072733;28;20436;-78
2022/03/04 02:06:34;;;;;;;1999.90;999.90;;;3.70;99.90;;;;;;5073185;28;20233;-78
2022/03/04 02:09:00;;;;;;;1999.90;999.90;;;3.70;99.90;;;;;;5055074;28;20544;-78
2022/03/04 02:11:26;;;;;;;1999.90;999.90;;;3.70;99.90;;;;;;5073001;28;20244;-78
2022/03/04 02:13:52;;;;;;;1999.90;999.90;;;3.70;99.90;;;;;;5072857;28;20623;-78
2022/03/04 02:16:34;;;;;;;1999.90;999.90;;;3.70;99.90;;;;;;5071784;28;20282;-78
2022/03/04 02:19:01;;;;;;;1999.90;999.90;;;3.70;99.90;;;;;;5055677;28;20228;-77
2022/03/04 02:21:29;;;;;;;1999.90;999.90;;;3.70;99.90;;;;;;5073081;28;20257;-78
2022/03/04 02:23:54;;;;;;;1999.90;999.90;;;3.60;99.90;;;;;;5073099;28;20170;-78
2022/03/04 02:26:20;;;;;;;1999.90;999.90;;;3.60;99.90;;;;;;5072655;28;20205;-78
2022/03/04 02:28:45;;;;;;;1999.90;999.90;;;3.50;99.90;;;;;;5072636;28;20163;-77
2022/03/04 02:31:15;;;;;;;1999.90;999.90;;;3.50;99.90;;;;;;5072720;28;20219;-77
2022/03/04 02:33:42;;;;;;;1999.90;999.90;;;3.40;99.90;;;;;;5072646;28;20214;-77
2022/03/04 02:36:08;;;;;;;1999.90;999.90;;;3.40;99.90;;;;;;5072459;28;20167;-78
2022/03/04 02:38:34;;;;;;;1999.90;999.90;;;3.20;99.90;;;;;;5072791;28;20162;-78
2022/03/04 02:40:59;;;;;;;1999.90;999.90;;;3.10;99.90;;;;;;5073018;28;20488;-78
2022/03/04 02:43:25;;;;;;;1999.90;999.90;;;3.10;99.90;;;;;;5072432;28;20173;-78
2022/03/04 02:45:51;;;;;;;1999.90;999.90;;;3.00;99.90;;;;;;5072275;28;20170;-78
2022/03/04 02:48:17;;;;;;;1999.90;999.90;;;3.00;99.90;;;;;;5072559;28;20187;-78
2022/03/04 02:50:43;;;;;;;1999.90;999.90;;;3.10;99.90;;;;;;5072400;28;20477;-77
2022/03/04 02:53:09;;;;;;;1999.90;999.90;;;3.00;99.90;;;;;;5072565;28;20195;-78
2022/03/04 02:55:35;;;;;;;1999.90;999.90;;;3.10;99.90;;;;;;5072318;28;20201;-78
2022/03/04 02:58:00;;;;;;;1999.90;999.90;;;3.10;99.90;;;;;;5072238;28;20564;-78
2022/03/04 03:00:26;;;;;;;1999.90;999.90;;;3.10;99.90;;;;;;5072595;28;20166;-78
2022/03/04 03:02:52;;;;;;;1999.90;999.90;;;3.00;99.90;;;;;;5072532;28;20179;-77
2022/03/04 03:05:17;;;;;;;1999.90;999.90;;;3.10;99.90;;;;;;5072075;28;20171;-78
2022/03/04 03:07:43;;;;;;;1999.90;999.90;;;3.10;99.90;;;;;;5072286;28;20546;-78
2022/03/04 03:10:10;;;;;;;1999.90;999.90;;;3.10;99.90;;;;;;5072142;28;20206;-78
2022/03/04 03:12:37;;;;;;;1999.90;999.90;;;3.00;99.90;;;;;;5072225;28;20293;-78
2022/03/04 03:15:03;;;;;;;1999.90;999.90;;;3.10;99.90;;;;;;5072001;28;20524;-78
2022/03/04 03:17:29;;;;;;;1999.90;999.90;;;3.00;99.90;;;;;;5071437;28;21020;-78
2022/03/04 03:19:55;;;;;;;1999.90;999.90;;;3.00;99.90;;;;;;5072151;28;20440;-78
2022/03/04 03:22:20;;;;;;;1999.90;999.90;;;2.80;99.90;;;;;;5072201;28;20195;-78
2022/03/04 03:24:47;;;;;;;1999.90;999.90;;;2.60;99.90;;;;;;5071962;28;20173;-78
2022/03/04 03:27:14;;;;;;;1999.90;999.90;;;2.50;99.90;;;;;;5072036;28;20195;-77
2022/03/04 03:29:39;;;;;;;1999.90;999.90;;;2.50;99.90;;;;;;5075563;28;20687;-78
2022/03/04 03:32:05;;;;;;;1999.90;999.90;;;2.50;99.90;;;;;;5076535;28;20209;-78
2022/03/04 03:34:31;;;;;;;1999.90;999.90;;;2.50;99.90;;;;;;5075984;28;20175;-78
2022/03/04 03:36:57;;;;;;;1999.90;999.90;;;2.50;99.90;;;;;;5075849;28;20285;-78
2022/03/04 03:39:22;;;;;;;1999.90;999.90;;;2.50;99.90;;;;;;5075701;28;20159;-78
2022/03/04 03:41:48;;;;;;;1999.90;999.90;;;2.50;99.90;;;;;;5075535;28;20185;-78
2022/03/04 03:44:14;;;;;;;1999.90;999.90;;;2.40;99.90;;;;;;5075403;28;20171;-78
2022/03/04 03:46:39;;;;;;;1999.90;999.90;;;2.40;99.90;;;;;;5075737;28;20278;-78
2022/03/04 03:49:05;;;;;;;1999.90;999.90;;;2.40;99.90;;;;;;5075746;28;20159;-77
2022/03/04 03:51:32;;;;;;;1999.90;999.90;;;2.30;99.90;;;;;;5075454;28;20170;-78
2022/03/04 03:53:58;;;;;;;1999.90;999.90;;;2.30;99.90;;;;;;5075175;28;20197;-78
2022/03/04 03:56:23;;;;;;;1999.90;999.90;;;2.40;99.90;;;;;;5075157;28;20281;-78
2022/03/04 03:58:49;;;;;;;1999.90;999.90;;;2.40;99.90;;;;;;5075370;28;20254;-78
2022/03/04 04:01:14;;;;;;;1999.90;999.90;;;2.40;99.90;;;;;;5075551;28;20561;-78
2022/03/04 04:03:40;;;;;;;1999.90;999.90;;;2.40;99.90;;;;;;5075268;28;20163;-78
2022/03/04 04:06:07;;;;;;;1999.90;999.90;;;2.30;99.90;;;;;;5075043;28;20540;-78
2022/03/04 04:08:32;;;;;;;1999.90;999.90;;;2.30;99.90;;;;;;5075273;28;20589;-78
2022/03/04 04:10:58;;;;;;;1999.90;999.90;;;2.30;99.90;;;;;;5074984;28;20205;-78
2022/03/04 04:13:24;;;;;;;1999.90;999.90;;;2.30;99.90;;;;;;5075064;28;20190;-77
2022/03/04 04:15:49;;;;;;;1999.90;999.90;;;2.30;99.90;;;;;;5074961;28;20163;-78
2022/03/04 04:18:15;;;;;;;1999.90;999.90;;;2.30;99.90;;;;;;5074834;28;20546;-78
2022/03/04 04:20:41;;;;;;;1999.90;999.90;;;2.30;99.90;;;;;;5074799;28;20197;-77
2022/03/04 04:23:06;;;;;;;1999.90;999.90;;;2.20;99.90;;;;;;5075049;28;20413;-78
2022/03/04 04:25:32;;;;;;;1999.90;999.90;;;2.20;99.90;;;;;;5074685;28;20213;-78
2022/03/04 04:27:58;;;;;;;1999.90;999.90;;;2.20;99.90;;;;;;5074787;28;20245;-78
2022/03/04 04:30:24;;;;;;;1999.90;999.90;;;2.00;99.90;;;;;;5074777;28;20947;-78
2022/03/04 04:32:50;;;;;;;1999.90;999.90;;;1.90;99.90;;;;;;5074852;28;20199;-78
2022/03/04 04:35:15;;;;;;;1999.90;999.90;;;1.80;99.90;;;;;;5074578;28;20159;-77
2022/03/04 04:37:41;;;;;;;1999.90;999.90;;;1.60;99.90;;;;;;5074494;28;20328;-78
2022/03/04 04:40:07;;;;;;;1999.90;999.90;;;1.60;99.90;;;;;;5073820;28;20213;-78
2022/03/04 04:42:33;;;;;;;1999.90;999.90;;;1.50;99.90;;;;;;5074505;28;20185;-78
2022/03/04 04:44:58;;;;;;;1999.90;999.90;;;1.60;99.90;;;;;;5074108;28;20640;-78
2022/03/04 04:47:24;;;;;;;1999.90;999.90;;;1.60;99.90;;;;;;5074514;28;20187;-78
2022/03/04 04:49:50;;;;;;;1999.90;999.90;;;1.60;99.90;;;;;;5074644;28;20167;-78
2022/03/04 04:52:15;;;;;;;1999.90;999.90;;;1.60;99.90;;;;;;5074167;28;20213;-78
2022/03/04 04:54:41;;;;;;;1999.90;999.90;;;1.60;99.90;;;;;;5073922;28;20178;-78
2022/03/04 04:57:07;;;;;;;1999.90;999.90;;;1.60;99.90;;;;;;5073991;28;20183;-78
2022/03/04 04:59:33;;;;;;;1999.90;999.90;;;1.60;99.90;;;;;;5074341;28;20456;-77
2022/03/04 05:01:59;;;;;;;1999.90;999.90;;;1.60;99.90;;;;;;5074100;28;20756;-78
2022/03/04 05:04:25;;;;;;;1999.90;999.90;;;1.70;99.90;;;;;;5073640;28;20203;-78
2022/03/04 05:06:50;;;;;;;1999.90;999.90;;;1.60;99.90;;;;;;5074174;28;20194;-77
2022/03/04 05:09:16;;;;;;;1999.90;999.90;;;1.50;99.90;;;;;;5074026;28;20435;-77
2022/03/04 05:11:42;;;;;;;1999.90;999.90;;;1.50;99.90;;;;;;5073816;28;20171;-78
2022/03/04 05:14:08;;;;;;;1999.90;999.90;;;1.40;99.90;;;;;;5073490;28;20682;-78
2022/03/04 05:16:33;;;;;;;1999.90;999.90;;;1.40;99.90;;;;;;5073484;28;20195;-78
2022/03/04 05:18:59;;;;;;;1999.90;999.90;;;1.30;99.90;;;;;;5073761;28;20175;-77
2022/03/04 05:21:24;;;;;;;1999.90;999.90;;;1.20;99.90;;;;;;5073481;28;20609;-77
2022/03/04 05:23:59;;;;;;;1999.90;999.90;;;1.00;99.90;;;;;;5073383;28;20228;-78
2022/03/04 05:26:45;;;;;;;1999.90;999.90;;;1.00;99.90;;;;;;5073348;28;20186;-78
2022/03/04 05:29:12;;;;;;;1999.90;999.90;;;1.00;99.90;;;;;;5073116;28;20567;-77
2022/03/04 05:31:39;;;;;;;1999.90;999.90;;;1.00;99.90;;;;;;5073498;28;20167;-77
2022/03/04 05:34:06;;;;;;;1999.90;999.90;;;0.90;99.90;;;;;;5072850;28;20652;-77
2022/03/04 05:36:32;;;;;;;1999.90;999.90;;;0.90;99.90;;;;;;5073234;28;20198;-77
2022/03/04 05:38:58;;;;;;;1999.90;999.90;;;0.90;99.90;;;;;;5073115;28;20165;-78
2022/03/04 05:41:24;;;;;;;1999.90;999.90;;;0.90;99.90;;;;;;5073147;28;20175;-77
2022/03/04 05:43:51;;;;;;;1999.90;999.90;;;0.90;99.90;;;;;;5073049;28;20163;-77
2022/03/04 05:46:17;;;;;;;1999.90;999.90;;;1.00;99.90;;;;;;5072732;28;20500;-78
2022/03/04 05:48:43;;;;;;;1999.90;999.90;;;0.90;99.90;;;;;;5073177;28;20175;-77
2022/03/04 05:51:09;;;;;;;1999.90;999.90;;;1.00;99.90;;;;;;5073126;28;20171;-77
2022/03/04 05:53:35;;;;;;;1999.90;999.90;;;1.00;99.90;;;;;;5072885;28;20489;-77
2022/03/04 05:56:03;;;;;;;1999.90;999.90;;;0.90;99.90;;;;;;5073335;28;20174;-78
2022/03/04 05:58:28;;;;;;;1999.90;999.90;;;0.70;99.90;;;;;;5073445;28;20163;-78
2022/03/04 06:00:54;;;;;;;1999.90;999.90;;;0.70;99.90;;;;;;5073563;28;20171;-78
2022/03/04 06:03:20;;;;;;;1999.90;999.90;;;0.70;99.90;;;;;;5073593;28;20240;-78
2022/03/04 06:05:46;;;;;;;1999.90;999.90;;;0.60;99.90;;;;;;5073453;28;20209;-79
2022/03/04 06:08:11;;;;;;;1999.90;999.90;;;0.60;99.90;;;;;;5073424;28;20513;-78
2022/03/04 06:10:37;;;;;;;1999.90;999.90;;;0.60;99.90;;;;;;5073170;28;20409;-78
2022/03/04 06:13:03;;;;;;;1999.90;999.90;;;0.60;99.90;;;;;;5073529;28;20206;-79
2022/03/04 06:15:29;;;;;;;1999.90;999.90;;;0.70;99.90;;;;;;5073956;28;20163;-79
2022/03/04 06:17:54;;;;;;;1999.90;999.90;;;0.70;99.90;;;;;;5073936;28;20205;-79
2022/03/04 06:20:20;;;;;;;1999.90;999.90;;;0.70;99.90;;;;;;5074390;28;20566;-79
2022/03/04 06:22:46;;;;;;;1999.90;999.90;;;0.80;99.90;;;;;;5074707;28;20228;-78
2022/03/04 06:25:13;;;;;;;1999.90;999.90;;;0.80;99.90;;;;;;5074432;28;20178;-78
2022/03/04 06:27:55;;;;;;;1999.90;999.90;;;0.80;99.90;;;;;;5073964;28;20429;-80
2022/03/04 06:30:21;;;;;;;1999.90;999.90;;;0.80;99.90;;;;;;5073511;28;20171;-79
2022/03/04 06:32:48;;;;;;;1999.90;999.90;;;0.80;99.90;;;;;;5072933;28;20194;-80
2022/03/04 06:35:14;;;;;;;1999.90;999.90;;;0.90;99.90;;;;;;5072688;28;20171;-79
2022/03/04 06:37:39;;;;;;;1999.90;999.90;;;1.00;99.90;;;;;;5072741;28;20266;-79
2022/03/04 06:40:06;;;;;;;1999.90;999.90;;;1.00;99.90;;;;;;5073254;28;20613;-80
2022/03/04 06:42:32;;;;;;;1999.90;999.90;;;1.00;99.90;;;;;;5072971;28;20424;-79
2022/03/04 06:44:58;;;;;;;1999.90;999.90;;;1.00;99.90;;;;;;5073983;28;20178;-79
2022/03/04 06:47:23;;;;;;;1999.90;999.90;;;1.10;99.90;;;;;;5073135;28;20634;-80
2022/03/04 06:49:49;;;;;;;1999.90;999.90;;;1.10;99.90;;;;;;5073484;28;20195;-80
2022/03/04 06:52:15;;;;;;;1999.90;999.90;;;1.20;99.90;;;;;;5073034;28;20163;-80
2022/03/04 06:54:40;;;;;;;1999.90;999.90;;;1.20;99.90;;;;;;5073371;28;20159;-80
2022/03/04 06:57:06;;;;;;;1999.90;999.90;;;1.30;99.90;;;;;;5072905;28;20409;-79
2022/03/04 06:59:32;;;;;;;1999.90;999.90;;;1.40;99.90;;;;;;5073669;28;20167;-80
2022/03/04 07:01:59;;;;;;;1999.90;999.90;;;1.50;99.90;;;;;;5073315;28;20224;-80
2022/03/04 07:04:24;;;;;;;1999.90;999.90;;;1.60;99.90;;;;;;5076696;28;20400;-80
2022/03/04 07:06:50;;;;;;;1999.90;999.90;;;1.70;99.90;;;;;;5076845;28;20189;-79
2022/03/04 07:09:16;;;;;;;1999.90;999.90;;;1.70;99.90;;;;;;5077130;28;20846;-80
2022/03/04 07:11:42;;;;;;;1999.90;999.90;;;1.80;99.90;;;;;;5076841;28;20175;-80
2022/03/04 07:14:07;;;;;;;1999.90;999.90;;;1.80;99.90;;;;;;5076406;28;20742;-80
2022/03/04 07:16:33;;;;;;;1999.90;999.90;;;1.90;99.90;;;;;;5076255;28;20228;-78
2022/03/04 07:18:59;;;;;;;1999.90;999.90;;;1.90;99.90;;;;;;5076345;28;20202;-79
2022/03/04 07:21:24;;;;;;;1999.90;999.90;;;2.00;99.90;;;;;;5076745;28;20178;-80
2022/03/04 07:23:50;;;;;;;1999.90;999.90;;;2.10;99.90;;;;;;5076805;28;20179;-79
2022/03/04 07:26:17;;;;;;;1999.90;999.90;;;2.20;99.90;;;;;;5077325;28;20171;-80
2022/03/04 07:28:42;;;;;;;1999.90;999.90;;;2.20;99.90;;;;;;5083616;28;20253;-80
2022/03/04 07:31:08;;;;;;;1999.90;999.90;;;2.30;99.90;;;;;;5082897;28;20232;-79
2022/03/04 07:33:36;;;;;;;1999.90;999.90;;;2.40;99.90;;;;;;5080296;28;20190;-80
2022/03/04 07:36:04;;;;;;;1999.90;999.90;;;2.50;99.90;;;;;;5064062;28;20782;-80
2022/03/04 07:38:30;;;;;;;1999.90;999.90;;;2.50;99.90;;;;;;5081868;28;20198;-80
2022/03/04 07:40:58;;;;;;;1999.90;999.90;;;2.60;99.90;;;;;;5083061;28;20429;-80
2022/03/04 07:43:25;;;;;;;1999.90;999.90;;;2.70;99.90;;;;;;5081733;28;20179;-80
2022/03/04 07:45:50;;;;;;;1999.90;999.90;;;2.70;99.90;;;;;;5082083;28;20175;-80
2022/03/04 07:48:16;;;;;;;1999.90;999.90;;;2.80;99.90;;;;;;5083472;28;20191;-80
2022/03/04 07:50:41;;;;;;;1999.90;999.90;;;2.80;99.90;;;;;;5081779;28;20593;-80
2022/03/04 07:53:07;;;;;;;1999.90;999.90;;;3.00;99.90;;;;;;5082328;28;20226;-80
2022/03/04 07:55:33;;;;;;;1999.90;999.90;;;3.10;99.90;;;;;;5082048;28;20724;-80
2022/03/04 07:57:59;;;;;;;1999.90;999.90;;;3.10;99.90;;;;;;5081553;28;20232;-80
2022/03/04 08:00:25;;;;;;;1999.90;999.90;;;3.20;99.90;;;;;;5080787;28;20191;-80
2022/03/04 08:02:52;;;;;;;1999.90;999.90;;;3.30;99.90;;;;;;5080524;28;20442;-80
2022/03/04 08:05:17;;;;;;;1999.90;999.90;;;3.40;99.90;;;;;;5079262;28;20413;-80
2022/03/04 08:07:43;;;;;;;1999.90;999.90;;;3.40;99.90;;;;;;5081173;28;20195;-78
2022/03/04 08:10:10;;;;;;;1999.90;999.90;;;3.50;99.90;;;;;;5080122;28;20202;-80
2022/03/04 08:12:36;;;;;;;1999.90;999.90;;;3.60;99.90;;;;;;5080572;28;20264;-80
2022/03/04 08:15:03;;;;;;;1999.90;999.90;;;3.70;99.90;;;;;;5080406;28;20405;-80
2022/03/04 08:17:30;;;;;;;1999.90;999.90;;;3.90;99.90;;;;;;5079512;28;20251;-78
2022/03/04 08:19:55;;;;;;;1999.90;999.90;;;3.90;99.90;;;;;;5074486;28;20877;-78
2022/03/04 08:22:22;;;;;;;1999.90;999.90;;;4.00;99.90;;;;;;5074608;28;20480;-81
2022/03/04 08:24:47;;;;;;;1999.90;999.90;;;4.10;99.90;;;;;;5075262;28;20167;-79
2022/03/04 08:27:13;;;;;;;1999.90;999.90;;;4.20;99.90;;;;;;5076291;28;20212;-78
2022/03/04 08:29:39;;;;;;;1999.90;999.90;;;4.30;99.90;;;;;;5076885;28;20234;-79
2022/03/04 08:32:05;;;;;;;1999.90;999.90;;;4.40;99.90;;;;;;5076030;28;20171;-79
2022/03/04 08:34:31;;;;;;;1999.90;999.90;;;4.40;99.90;;;;;;5076561;28;20309;-79
2022/03/04 08:36:56;;;;;;;1999.90;999.90;;;4.60;99.90;;;;;;5076655;28;20449;-78
2022/03/04 08:39:22;;;;;;;1999.90;999.90;;;4.70;99.90;;;;;;5076269;28;20174;-78
2022/03/04 08:41:48;;;;;;;1999.90;999.90;;;4.80;99.90;;;;;;5076487;28;20209;-78
2022/03/04 08:44:13;;;;;;;1999.90;999.90;;;4.90;99.90;;;;;;5076605;28;20177;-79
2022/03/04 08:46:39;;;;;;;1999.90;999.90;;;5.00;99.90;;;;;;5076013;28;20737;-78
2022/03/04 08:49:05;;;;;;;1999.90;999.90;;;5.20;99.90;;;;;;5075875;28;20171;-79
2022/03/04 08:51:34;;;;;;;1999.90;999.90;;;5.30;99.90;;;;;;5073735;28;20412;-80
2022/03/04 08:54:00;;;;;;;1999.90;999.90;;;5.40;99.90;;;;;;5054302;28;20188;-78
2022/03/04 08:56:27;;;;;;;1999.90;999.90;;;5.60;99.90;;;;;;5060225;28;20441;-79
2022/03/04 08:59:38;;;;;;;1999.90;999.90;;;5.70;99.90;;;;;;5059604;28;20164;-79
2022/03/04 09:05:50;;;;;;;1999.90;999.90;;;5.90;99.90;;;;;;4966114;29;20414;-79
2022/03/04 09:13:00;;;;;;;1999.90;999.90;;;6.00;99.90;;;;;;4971560;29;20386;-78
2022/03/04 09:18:57;;;;;;;1999.90;999.90;;;6.20;99.90;;;;;;4958808;28;20492;-78
2022/03/04 09:25:00;;;;;;;1999.90;999.90;;;6.30;99.90;;;;;;5055678;28;20448;-79
2022/03/04 09:27:30;;;;;;;1999.90;999.90;;;6.40;99.90;;;;;;5034931;28;20433;-79
2022/03/04 09:30:21;;;;;;;1999.90;999.90;;;6.50;99.90;;;;;;5035169;28;20497;-77
2022/03/04 09:32:47;;;;;;;1999.90;999.90;;;7.00;99.90;;;;;;5041738;28;20488;-79
2022/03/04 09:35:14;;;;;;;1999.90;999.90;;;6.70;99.90;;;;;;5038779;28;20410;-79
2022/03/04 09:37:47;;;;;;;1999.90;999.90;;;6.80;99.90;;;;;;5038868;28;20417;-79
2022/03/04 09:40:14;;;;;;;1999.90;999.90;;;6.80;99.90;;;;;;5043146;28;20168;-79
2022/03/04 09:46:13;;;;;;;1999.90;999.90;;;6.90;99.90;;;;;;5048998;28;20934;-79
2022/03/04 09:48:46;;;;;;;1999.90;999.90;;;7.10;99.90;;;;;;5042868;28;20414;-79
2022/03/04 09:51:12;;;;;;;1999.90;999.90;;;7.10;99.90;;;;;;5042652;28;20417;-79
2022/03/04 09:53:40;;;;;;;1999.90;999.90;;;7.50;99.90;;;;;;5042401;28;21033;-79
2022/03/04 09:56:09;;;;;;;1999.90;999.90;;;7.20;99.90;;;;;;5040743;28;20406;-79
2022/03/04 09:58:37;;;;;;;1999.90;999.90;;;7.40;99.90;;;;;;5041480;28;20777;-79
2022/03/04 10:01:12;;;;;;;1999.90;999.90;;;7.50;99.90;;;;;;5041876;28;20424;-78
2022/03/04 10:03:43;;;;;;;1999.90;999.90;;;7.70;99.90;;;;;;5040993;28;20448;-79
2022/03/04 10:06:09;;;;;;;1999.90;999.90;;;7.80;99.90;;;;;;5057413;28;20414;-79
2022/03/04 10:08:40;;;;;;;1999.90;999.90;;;7.80;99.90;;;;;;5040607;28;20407;-79
2022/03/04 10:11:07;;;;;;;1999.90;999.90;;;8.00;99.90;;;;;;5041126;28;20414;-79
2022/03/04 10:13:46;;;;;;;1999.90;999.90;;;8.10;99.90;;;;;;5041039;28;20450;-78
2022/03/04 10:16:23;;;;;;;1999.90;999.90;;;8.20;99.90;;;;;;5039831;28;20425;-79
2022/03/04 10:19:06;;;;;;;1999.90;999.90;;;8.20;99.90;;;;;;5040587;28;20461;-78
2022/03/04 10:22:00;;;;;;;1999.90;999.90;;;8.30;99.90;;;;;;5042142;28;20408;-79
2022/03/04 10:24:47;;;;;;;1999.90;999.90;;;8.60;99.90;;;;;;5052236;28;20411;-80
2022/03/04 10:27:16;;;;;;;1999.90;999.90;;;8.60;99.90;;;;;;5039779;28;20430;-80
2022/03/04 10:43:31;;;;;;;1999.90;999.90;;;9.10;99.90;;;;;;4974118;28;20453;-78
2022/03/04 10:46:04;;;;;;;1999.90;999.90;;;9.40;99.90;;;;;;4990257;28;20830;-78
2022/03/04 10:48:30;;;;;;;1999.90;999.90;;;9.50;99.90;;;;;;5064307;28;20894;-78
2022/03/04 10:51:03;;;;;;;1999.90;999.90;;;9.60;99.90;;;;;;5092980;28;20398;-78
2022/03/04 10:53:31;;;;;;;1999.90;999.90;;;9.70;99.90;;;;;;5092790;28;20861;-78
2022/03/04 10:56:04;;;;;;;1999.90;999.90;;;9.70;99.90;;;;;;5091991;28;20748;-78
2022/03/04 10:58:36;;;;;;;1999.90;999.90;;;9.80;99.90;;;;;;5093123;28;20410;-78
2022/03/04 11:01:09;;;;;;;1999.90;999.90;;;9.90;99.90;;;;;;5093746;28;20391;-78
2022/03/04 11:12:08;;;;;;;1999.90;999.90;;;10.50;99.90;;;;;;5286832;22;20494;-78
2022/03/04 11:14:34;;;;;;;1999.90;999.90;;;10.50;99.90;;;;;;5094771;28;20415;-78
2022/03/04 11:17:00;;;;;;;1999.90;999.90;;;10.60;99.90;;;;;;5094175;28;20944;-79
2022/03/04 11:19:27;;;;;;;1999.90;999.90;;;10.60;99.90;;;;;;5094438;28;20626;-78
2022/03/04 11:22:49;;;;;;;1999.90;999.90;;;10.70;99.90;;;;;;5097133;28;20411;-82
2022/03/04 11:25:15;;;;;;;1999.90;999.90;;;10.80;99.90;;;;;;5092635;28;20507;-81
2022/03/04 11:28:06;;;;;;;;;;;;;;;;;;;;;
2022/03/04 11:37:49;;;;;;;1999.90;999.90;;;11.30;96.00;;;;;;4973957;28;20839;-78
2022/03/04 11:40:33;;;;;;;1999.90;999.90;;;11.40;95.60;;;;;;4974816;28;20436;-78
2022/03/04 11:44:06;;;;;;;1999.90;999.90;;;11.50;94.90;;;;;;4992759;28;20425;-79
2022/03/04 12:00:44;;;;;;;1999.90;999.90;;;15.80;56.50;;;;;;4884783;29;21010;-79
2022/03/04 12:12:09;;;;;;;1999.90;999.90;;;18.40;30.80;;;;;;5597242;22;20485;-79
2022/03/04 12:14:35;;;;;;;1999.90;999.90;;;18.50;27.40;;;;;;5090178;28;20470;-78
2022/03/04 12:17:00;;;;;;;1999.90;999.90;;;18.70;24.70;;;;;;5090622;28;20430;-79
2022/03/04 12:19:32;;;;;;;1999.90;999.90;;;18.60;25.30;;;;;;5091732;28;20837;-79
2022/03/04 12:21:58;;;;;;;1999.90;999.90;;;18.50;22.20;;;;;;5091777;28;20169;-78
2022/03/04 12:24:31;;;;;;;1999.90;999.90;;;18.80;24.00;;;;;;5090595;28;20448;-79
2022/03/04 12:26:57;;;;;;;1999.90;999.90;;;18.90;21.50;;;;;;5090983;28;20198;-79
2022/03/04 12:29:44;;;;;;;1999.90;999.90;;;19.20;22.60;;;;;;5091823;28;20397;-79
2022/03/04 12:32:11;;;;;;;1999.90;999.90;;;19.40;22.10;;;;;;5090568;28;20403;-79
2022/03/04 12:34:41;;;;;;;1999.90;999.90;;;19.80;19.40;;;;;;5090155;28;20770;-79
2022/03/04 12:37:14;;;;;;;1999.90;999.90;;;20.00;19.20;;;;;;5090770;28;20421;-79
2022/03/04 12:39:40;;;;;;;1999.90;999.90;;;19.50;18.30;;;;;;5089745;28;20398;-79
2022/03/04 12:42:07;;;;;;;1999.90;999.90;;;19.80;20.40;;;;;;5083842;28;20378;-79
2022/03/04 12:44:34;;;;;;;1999.90;999.90;;;20.20;18.40;;;;;;5082540;28;20415;-79
2022/03/04 12:47:00;;;;;;;1999.90;999.90;;;20.00;17.00;;;;;;5082698;28;20531;-78
2022/03/04 12:49:28;;;;;;;1999.90;999.90;;;20.10;17.60;;;;;;5084360;28;20401;-78
2022/03/04 12:51:54;;;;;;;1999.90;999.90;;;20.00;16.70;;;;;;5083165;28;20168;-79
2022/03/04 12:54:25;;;;;;;1999.90;999.90;;;20.10;16.00;;;;;;5081322;28;20510;-79
2022/03/04 12:56:56;;;;;;;1999.90;999.90;;;20.00;15.90;;;;;;5082876;28;20430;-78
2022/03/04 12:59:23;;;;;;;1999.90;999.90;;;20.30;14.30;;;;;;5083522;28;20411;-79
2022/03/04 13:01:50;;;;;;;1999.90;999.90;;;20.60;13.60;;;;;;5082385;28;20470;-79
2022/03/04 13:04:16;;;;;;;1999.90;999.90;;;20.90;13.50;;;;;;5082937;28;20412;-79
2022/03/04 13:06:42;;;;;;;1999.90;999.90;;;21.40;13.10;;;;;;5085406;28;20467;-78
2022/03/04 13:09:10;;;;;;;1999.90;999.90;;;21.80;13.60;;;;;;5082707;28;20183;-78
2022/03/04 13:11:41;;;;;;;1999.90;999.90;;;21.80;13.10;;;;;;5082732;28;20424;-79
2022/03/04 13:14:17;;;;;;;1999.90;999.90;;;22.10;11.80;;;;;;5082502;28;20461;-79
2022/03/04 13:16:46;;;;;;;1999.90;999.90;;;22.60;10.30;;;;;;5081761;28;20419;-79
2022/03/04 13:19:35;;;;;;;1999.90;999.90;;;22.80;9.40;;;;;;5082370;28;20411;-79
2022/03/04 13:22:14;;;;;;;1999.90;999.90;;;23.20;8.40;;;;;;5098221;28;20507;-79
2022/03/04 13:24:45;;;;;;;1999.90;999.90;;;23.40;9.00;;;;;;5097242;28;20392;-79